createdAt,value
2022-10-29T00:00:44.464Z,7.83
2022-10-29T00:01:51.110Z,8.37
2022-10-29T00:02:52.752Z,8.17
2022-10-29T00:03:55.406Z,9.00
2022-10-29T00:04:56.965Z,8.73
2022-10-29T00:06:01.725Z,7.90
2022-10-29T00:07:03.288Z,8.60
2022-10-29T00:08:05.988Z,9.30
2022-10-29T00:09:07.769Z,9.10
2022-10-29T00:10:10.796Z,9.07
2022-10-29T00:11:14.898Z,7.90
2022-10-29T00:12:18.729Z,8.93
2022-10-29T00:13:20.317Z,8.30
2022-10-29T00:14:22.798Z,8.10
2022-10-29T00:15:24.683Z,8.77
2022-10-29T00:16:28.957Z,8.50
2022-10-29T00:17:30.475Z,7.83
2022-10-29T00:18:33.011Z,7.73
2022-10-29T00:19:34.566Z,7.73
2022-10-29T00:20:37.071Z,7.70
2022-10-29T00:21:40.331Z,7.63
2022-10-29T00:22:42.830Z,8.67
2022-10-29T00:23:44.728Z,8.40
2022-10-29T00:24:47.207Z,7.73
2022-10-29T00:25:48.725Z,9.43
2022-10-29T00:26:51.240Z,7.43
2022-10-29T00:27:55.715Z,8.53
2022-10-29T00:28:58.450Z,7.50
2022-10-29T00:30:00.027Z,8.30
2022-10-29T00:31:06.271Z,8.93
2022-10-29T00:32:09.859Z,7.47
2022-10-29T00:33:12.905Z,8.03
2022-10-29T00:34:14.458Z,8.57
2022-10-29T00:35:17.103Z,8.40
2022-10-29T00:36:22.009Z,8.23
2022-10-29T00:37:24.479Z,9.20
2022-10-29T00:38:27.068Z,8.67
2022-10-29T00:39:29.767Z,8.20
2022-10-29T00:40:35.551Z,8.53
2022-10-29T00:41:38.054Z,9.23
2022-10-29T00:42:39.558Z,8.40
2022-10-29T00:43:48.753Z,8.00
2022-10-29T00:44:51.188Z,7.90
2022-10-29T00:45:57.772Z,8.03
2022-10-29T00:47:04.634Z,8.30
2022-10-29T00:48:07.341Z,7.73
2022-10-29T00:49:09.956Z,7.33
2022-10-29T00:50:15.416Z,8.40
2022-10-29T00:51:17.964Z,7.33
2022-10-29T00:52:23.147Z,8.80
2022-10-29T00:53:28.442Z,7.27
2022-10-29T00:54:32.913Z,7.90
2022-10-29T00:55:35.424Z,7.97
2022-10-29T00:56:40.571Z,7.97
2022-10-29T00:57:49.944Z,8.30
2022-10-29T00:58:53.154Z,6.90
2022-10-29T00:59:56.412Z,8.60
2022-10-29T01:00:59.224Z,8.17
2022-10-29T01:02:01.927Z,7.90
2022-10-29T01:03:03.759Z,7.80
2022-10-29T01:04:07.218Z,8.30
2022-10-29T01:05:10.236Z,7.80
2022-10-29T01:06:12.902Z,7.70
2022-10-29T01:07:14.504Z,7.60
2022-10-29T01:08:17.560Z,8.93
2022-10-29T01:09:19.098Z,7.80
2022-10-29T01:10:32.833Z,7.67
2022-10-29T01:11:44.166Z,7.50
2022-10-29T01:14:27.975Z,7.70
2022-10-29T01:15:41.570Z,7.90
2022-10-29T01:16:49.924Z,8.20
2022-10-29T01:18:05.973Z,9.50
2022-10-29T01:19:15.358Z,8.10
2022-10-29T01:20:42.203Z,8.93
2022-10-29T01:21:45.978Z,8.77
2022-10-29T01:22:59.654Z,8.07
2022-10-29T01:24:27.808Z,7.50
2022-10-29T01:25:51.093Z,9.40
2022-10-29T01:27:29.304Z,7.20
2022-10-29T01:28:42.584Z,8.37
2022-10-29T01:30:01.489Z,8.40
2022-10-29T01:31:19.603Z,8.03
2022-10-29T01:32:30.955Z,8.70
2022-10-29T01:33:39.630Z,7.63
2022-10-29T01:34:45.958Z,7.60
2022-10-29T01:35:58.327Z,7.67
2022-10-29T01:37:07.181Z,8.70
2022-10-29T01:38:20.835Z,8.60
2022-10-29T01:39:35.741Z,8.43
2022-10-29T01:40:44.343Z,9.50
2022-10-29T01:41:53.936Z,7.53
2022-10-29T01:43:05.106Z,7.80
2022-10-29T01:44:17.312Z,8.50
2022-10-29T01:45:24.415Z,8.37
2022-10-29T01:46:34.147Z,7.93
2022-10-29T01:47:41.592Z,8.53
2022-10-29T01:48:46.158Z,9.57
2022-10-29T01:49:52.528Z,8.47
2022-10-29T01:50:58.823Z,8.57
2022-10-29T01:52:04.264Z,8.00
2022-10-29T01:53:06.772Z,8.67
2022-10-29T01:54:12.057Z,8.13
2022-10-29T01:55:16.563Z,9.40
2022-10-29T01:56:19.268Z,9.57
2022-10-29T01:57:30.439Z,8.17
2022-10-29T01:58:34.293Z,8.17
2022-10-29T01:59:51.017Z,8.50
2022-10-29T02:01:03.237Z,8.80
2022-10-29T02:02:15.751Z,8.37
2022-10-29T02:03:30.955Z,8.03
2022-10-29T02:04:47.666Z,8.13
2022-10-29T02:05:58.154Z,8.50
2022-10-29T02:07:04.016Z,9.63
2022-10-29T02:08:18.952Z,7.97
2022-10-29T02:09:26.889Z,7.40
2022-10-29T02:10:34.501Z,8.60
2022-10-29T02:11:48.852Z,8.47
2022-10-29T02:12:53.862Z,9.20
2022-10-29T02:14:02.329Z,8.03
2022-10-29T02:15:09.120Z,8.30
2022-10-29T02:16:11.989Z,10.23
2022-10-29T02:17:15.826Z,8.00
2022-10-29T02:18:17.740Z,8.40
2022-10-29T02:19:20.469Z,8.10
2022-10-29T02:20:22.026Z,8.63
2022-10-29T02:21:24.654Z,9.43
2022-10-29T02:22:26.160Z,8.57
2022-10-29T02:23:28.977Z,8.80
2022-10-29T02:24:30.501Z,9.40
2022-10-29T02:25:33.103Z,8.27
2022-10-29T02:26:34.658Z,8.27
2022-10-29T02:27:37.194Z,9.80
2022-10-29T02:28:38.931Z,8.40
2022-10-29T02:29:41.462Z,8.17
2022-10-29T02:30:42.951Z,7.97
2022-10-29T02:31:45.498Z,8.80
2022-10-29T02:32:48.377Z,8.60
2022-10-29T02:33:50.957Z,8.57
2022-10-29T02:34:52.508Z,9.33
2022-10-29T02:35:54.984Z,9.03
2022-10-29T02:36:56.498Z,8.70
2022-10-29T02:37:59.000Z,8.03
2022-10-29T02:39:00.807Z,8.00
2022-10-29T02:40:06.676Z,8.87
2022-10-29T02:41:09.166Z,8.37
2022-10-29T02:42:10.980Z,8.27
2022-10-29T02:43:13.517Z,9.13
2022-10-29T02:44:15.090Z,7.80
2022-10-29T02:45:17.747Z,8.77
2022-10-29T02:46:28.456Z,9.07
2022-10-29T02:47:30.942Z,8.30
2022-10-29T02:48:33.803Z,8.20
2022-10-29T02:49:36.533Z,8.30
2022-10-29T02:50:38.047Z,8.83
2022-10-29T02:51:40.545Z,8.87
2022-10-29T02:52:42.068Z,8.60
2022-10-29T02:53:45.323Z,9.87
2022-10-29T02:54:46.892Z,9.30
2022-10-29T02:55:49.348Z,9.30
2022-10-29T02:56:50.849Z,9.03
2022-10-29T02:57:53.584Z,9.10
2022-10-29T02:58:55.454Z,8.97
2022-10-29T02:59:57.978Z,10.03
2022-10-29T03:00:59.533Z,9.07
2022-10-29T03:02:02.212Z,9.40
2022-10-29T03:03:04.096Z,9.07
2022-10-29T03:04:08.002Z,9.50
2022-10-29T03:05:10.331Z,8.87
2022-10-29T03:06:13.904Z,9.47
2022-10-29T03:07:15.402Z,9.50
2022-10-29T03:08:18.091Z,11.37
2022-10-29T03:09:19.648Z,8.73
2022-10-29T03:10:22.164Z,10.87
2022-10-29T03:11:23.774Z,9.10
2022-10-29T03:12:26.258Z,8.73
2022-10-29T03:13:27.855Z,10.67
2022-10-29T03:14:30.388Z,10.50
2022-10-29T03:15:31.911Z,10.70
2022-10-29T03:16:34.537Z,10.30
2022-10-29T03:17:36.023Z,8.60
2022-10-29T03:18:38.743Z,10.23
2022-10-29T03:19:41.623Z,8.20
2022-10-29T03:20:45.341Z,8.57
2022-10-29T03:21:46.866Z,8.73
2022-10-29T03:22:49.378Z,9.50
2022-10-29T03:23:50.919Z,9.30
2022-10-29T03:24:53.406Z,10.57
2022-10-29T03:25:56.558Z,9.53
2022-10-29T03:26:59.068Z,9.10
2022-10-29T03:28:00.662Z,9.33
2022-10-29T03:29:03.520Z,9.80
2022-10-29T03:30:06.244Z,9.87
2022-10-29T03:31:09.088Z,10.50
2022-10-29T03:32:19.786Z,8.67
2022-10-29T03:33:22.491Z,8.30
2022-10-29T03:34:23.992Z,8.90
2022-10-29T03:35:27.897Z,9.37
2022-10-29T03:36:30.537Z,9.33
2022-10-29T03:37:32.022Z,8.57
2022-10-29T03:38:35.030Z,8.30
2022-10-29T03:39:36.547Z,9.33
2022-10-29T03:40:39.049Z,10.90
2022-10-29T03:41:41.571Z,9.40
2022-10-29T03:42:43.081Z,9.30
2022-10-29T03:43:45.629Z,8.90
2022-10-29T03:44:47.226Z,9.07
2022-10-29T03:45:52.809Z,9.60
2022-10-29T03:46:54.386Z,8.83
2022-10-29T03:47:57.579Z,9.70
2022-10-29T03:48:59.575Z,9.57
2022-10-29T03:50:02.149Z,9.30
2022-10-29T03:51:06.692Z,8.77
2022-10-29T03:52:09.285Z,8.90
2022-10-29T03:53:11.078Z,9.17
2022-10-29T03:54:13.547Z,9.23
2022-10-29T03:55:15.290Z,8.20
2022-10-29T03:56:17.792Z,8.50
2022-10-29T03:57:19.387Z,10.50
2022-10-29T03:58:22.859Z,10.60
2022-10-29T03:59:24.771Z,8.80
2022-10-29T04:00:27.261Z,8.07
2022-10-29T04:01:28.869Z,10.27
2022-10-29T04:02:31.802Z,8.77
2022-10-29T04:03:35.421Z,8.10
2022-10-29T04:04:37.851Z,8.20
2022-10-29T04:05:39.340Z,9.40
2022-10-29T04:06:43.324Z,8.63
2022-10-29T04:07:44.845Z,8.87
2022-10-29T04:08:47.369Z,8.30
2022-10-29T04:09:48.934Z,9.20
2022-10-29T04:10:52.144Z,7.70
2022-10-29T04:11:53.854Z,8.20
2022-10-29T04:12:56.795Z,9.30
2022-10-29T04:13:58.568Z,9.13
2022-10-29T04:15:01.127Z,10.27
2022-10-29T04:16:02.904Z,8.97
2022-10-29T04:17:05.407Z,9.13
2022-10-29T04:18:09.901Z,7.90
2022-10-29T04:19:12.377Z,8.53
2022-10-29T04:20:31.608Z,8.80
2022-10-29T04:28:17.521Z,9.02
2022-10-29T04:28:44.359Z,7.73
2022-10-29T04:29:46.023Z,8.40
2022-10-29T04:30:51.685Z,8.57
2022-10-29T04:31:53.214Z,9.17
2022-10-29T04:32:58.322Z,8.03
2022-10-29T04:34:01.006Z,8.57
2022-10-29T04:35:03.639Z,9.50
2022-10-29T04:36:05.925Z,7.90
2022-10-29T04:37:08.440Z,8.30
2022-10-29T04:38:12.334Z,8.93
2022-10-29T04:39:18.208Z,8.43
2022-10-29T04:40:22.918Z,8.50
2022-10-29T04:41:25.553Z,8.53
2022-10-29T04:42:27.102Z,9.63
2022-10-29T04:43:30.197Z,9.30
2022-10-29T04:44:31.706Z,9.20
2022-10-29T04:45:34.455Z,8.67
2022-10-29T04:46:36.246Z,8.00
2022-10-29T04:47:38.706Z,9.23
2022-10-29T04:48:40.369Z,7.60
2022-10-29T04:49:42.901Z,8.83
2022-10-29T04:50:44.574Z,7.77
2022-10-29T04:51:47.108Z,8.37
2022-10-29T04:52:48.649Z,9.00
2022-10-29T04:53:53.190Z,8.33
2022-10-29T04:54:54.738Z,8.23
2022-10-29T04:56:01.194Z,8.27
2022-10-29T04:57:02.740Z,8.07
2022-10-29T04:58:05.471Z,8.60
2022-10-29T04:59:07.050Z,8.70
2022-10-29T05:00:16.218Z,7.27
2022-10-29T05:01:21.280Z,8.30
2022-10-29T05:02:23.941Z,7.50
2022-10-29T05:03:25.474Z,8.73
2022-10-29T05:04:29.373Z,8.67
2022-10-29T05:05:30.884Z,8.07
2022-10-29T05:06:33.402Z,10.40
2022-10-29T05:07:37.597Z,7.77
2022-10-29T05:08:40.117Z,7.90
2022-10-29T05:09:42.922Z,7.65
2022-10-29T05:10:45.428Z,8.27
2022-10-29T05:11:47.102Z,7.60
2022-10-29T05:12:49.596Z,8.40
2022-10-29T05:13:51.166Z,7.70
2022-10-29T05:14:53.663Z,7.90
2022-10-29T05:15:55.444Z,8.37
2022-10-29T05:16:57.975Z,8.40
2022-10-29T05:17:59.955Z,8.00
2022-10-29T05:19:02.715Z,7.77
2022-10-29T05:20:05.292Z,7.60
2022-10-29T05:21:07.746Z,7.87
2022-10-29T05:22:09.597Z,8.07
2022-10-29T05:23:12.985Z,8.07
2022-10-29T05:24:15.024Z,8.30
2022-10-29T05:25:18.875Z,7.90
2022-10-29T05:26:20.435Z,8.50
2022-10-29T05:27:22.962Z,8.43
2022-10-29T05:28:24.543Z,8.30
2022-10-29T05:29:27.025Z,9.10
2022-10-29T05:30:28.596Z,8.40
2022-10-29T05:31:31.269Z,8.10
2022-10-29T05:32:32.958Z,8.00
2022-10-29T05:33:35.535Z,8.70
2022-10-29T05:34:39.509Z,8.30
2022-10-29T05:35:45.148Z,9.13
2022-10-29T05:36:46.648Z,8.70
2022-10-29T05:37:52.692Z,9.63
2022-10-29T05:38:54.233Z,8.20
2022-10-29T05:39:56.704Z,7.07
2022-10-29T05:41:01.004Z,6.90
2022-10-29T05:42:02.518Z,7.43
2022-10-29T05:43:05.313Z,7.80
2022-10-29T05:44:07.207Z,8.00
2022-10-29T05:45:10.984Z,8.43
2022-10-29T05:46:13.559Z,7.20
2022-10-29T05:47:15.076Z,7.87
2022-10-29T05:48:17.639Z,7.93
2022-10-29T05:49:19.212Z,9.50
2022-10-29T05:50:21.995Z,8.00
2022-10-29T05:51:24.564Z,8.90
2022-10-29T05:52:26.068Z,7.87
2022-10-29T05:53:28.621Z,8.23
2022-10-29T05:54:30.179Z,7.60
2022-10-29T05:55:35.262Z,7.83
2022-10-29T05:56:38.106Z,7.38
2022-10-29T05:57:40.581Z,7.23
2022-10-29T05:58:43.070Z,8.25
2022-10-29T05:59:44.570Z,8.20
2022-10-29T06:00:47.145Z,8.87
2022-10-29T06:01:48.780Z,7.60
2022-10-29T06:02:51.483Z,8.13
2022-10-29T06:03:54.022Z,8.50
2022-10-29T06:04:55.515Z,7.50
2022-10-29T06:05:57.984Z,7.13
2022-10-29T06:07:00.804Z,8.00
2022-10-29T06:08:03.265Z,6.60
2022-10-29T06:09:04.957Z,7.50
2022-10-29T06:10:08.710Z,8.83
2022-10-29T06:11:10.226Z,7.43
2022-10-29T06:12:14.083Z,7.70
2022-10-29T06:13:17.964Z,8.03
2022-10-29T06:14:20.514Z,7.17
2022-10-29T06:15:22.823Z,9.50
2022-10-29T06:16:25.354Z,7.63
2022-10-29T06:17:27.348Z,7.97
2022-10-29T06:18:30.529Z,8.30
2022-10-29T06:19:32.277Z,7.90
2022-10-29T06:20:34.804Z,8.90
2022-10-29T06:21:37.337Z,7.80
2022-10-29T06:22:39.073Z,7.50
2022-10-29T06:23:41.895Z,7.90
2022-10-29T06:24:43.397Z,7.73
2022-10-29T06:25:45.869Z,8.60
2022-10-29T06:26:47.413Z,6.70
2022-10-29T06:27:58.701Z,8.33
2022-10-29T06:29:01.559Z,8.43
2022-10-29T06:30:03.863Z,7.87
2022-10-29T06:31:06.587Z,7.90
2022-10-29T06:32:08.071Z,8.00
2022-10-29T06:33:10.595Z,7.70
2022-10-29T06:34:13.437Z,7.53
2022-10-29T06:35:16.025Z,8.00
2022-10-29T06:36:17.588Z,7.97
2022-10-29T06:37:33.119Z,8.43
2022-10-29T06:38:34.684Z,7.97
2022-10-29T06:39:37.220Z,7.30
2022-10-29T06:40:38.959Z,7.60
2022-10-29T06:41:41.547Z,8.20
2022-10-29T06:42:43.262Z,8.30
2022-10-29T06:43:47.192Z,7.07
2022-10-29T06:44:48.669Z,7.47
2022-10-29T06:45:51.209Z,7.97
2022-10-29T06:46:52.830Z,7.23
2022-10-29T06:47:55.844Z,9.17
2022-10-29T06:48:58.594Z,8.17
2022-10-29T06:50:00.153Z,8.30
2022-10-29T06:51:02.600Z,7.70
2022-10-29T06:52:04.544Z,8.17
2022-10-29T06:53:08.719Z,7.33
2022-10-29T06:54:10.263Z,7.87
2022-10-29T06:55:12.710Z,7.17
2022-10-29T06:56:14.208Z,8.13
2022-10-29T06:57:16.702Z,8.30
2022-10-29T06:58:20.165Z,7.30
2022-10-29T06:59:24.423Z,7.30
2022-10-29T07:00:26.183Z,7.80
2022-10-29T07:01:31.746Z,8.17
2022-10-29T07:02:34.143Z,7.27
2022-10-29T07:03:36.874Z,8.23
2022-10-29T07:04:38.360Z,7.70
2022-10-29T07:05:40.889Z,7.00
2022-10-29T07:06:42.475Z,7.13
2022-10-29T07:07:44.982Z,7.43
2022-10-29T07:08:46.591Z,6.33
2022-10-29T07:09:49.047Z,7.07
2022-10-29T07:10:51.052Z,7.87
2022-10-29T07:11:53.705Z,8.33
2022-10-29T07:12:55.667Z,8.27
2022-10-29T07:13:58.595Z,8.27
2022-10-29T07:15:01.503Z,7.50
2022-10-29T07:16:04.153Z,7.00
2022-10-29T07:17:06.009Z,7.63
2022-10-29T07:18:09.645Z,7.17
2022-10-29T07:19:12.133Z,7.10
2022-10-29T07:20:13.873Z,7.40
2022-10-29T07:21:16.530Z,7.57
2022-10-29T07:22:18.026Z,6.90
2022-10-29T07:23:20.801Z,6.80
2022-10-29T07:24:22.399Z,6.30
2022-10-29T07:25:25.281Z,7.20
2022-10-29T07:26:27.738Z,7.70
2022-10-29T07:27:29.321Z,7.83
2022-10-29T07:28:32.023Z,6.67
2022-10-29T07:29:33.796Z,6.60
2022-10-29T07:30:37.912Z,8.53
2022-10-29T07:31:39.501Z,6.50
2022-10-29T07:32:42.141Z,6.70
2022-10-29T07:33:43.719Z,6.20
2022-10-29T07:34:46.213Z,6.10
2022-10-29T07:35:50.430Z,6.90
2022-10-29T07:36:52.914Z,6.30
2022-10-29T07:37:59.770Z,7.23
2022-10-29T07:39:04.915Z,7.20
2022-10-29T07:40:07.997Z,7.60
2022-10-29T07:41:10.727Z,6.57
2022-10-29T07:42:12.243Z,6.30
2022-10-29T07:43:14.748Z,7.30
2022-10-29T07:44:16.882Z,7.57
2022-10-29T07:45:19.423Z,6.67
2022-10-29T07:46:22.253Z,6.40
2022-10-29T07:47:24.850Z,7.53
2022-10-29T07:48:26.398Z,7.47
2022-10-29T07:49:28.827Z,6.40
2022-10-29T07:50:31.482Z,6.73
2022-10-29T07:51:34.009Z,7.53
2022-10-29T07:52:35.584Z,7.07
2022-10-29T07:53:38.058Z,7.20
2022-10-29T07:54:39.565Z,6.43
2022-10-29T07:55:42.383Z,7.17
2022-10-29T07:56:46.844Z,6.30
2022-10-29T07:57:58.837Z,7.73
2022-10-29T07:59:00.543Z,8.00
2022-10-29T08:00:03.389Z,8.00
2022-10-29T08:01:07.234Z,6.87
2022-10-29T08:02:11.859Z,7.60
2022-10-29T08:03:13.976Z,7.00
2022-10-29T08:04:16.515Z,7.00
2022-10-29T08:05:18.077Z,7.10
2022-10-29T08:06:20.895Z,8.03
2022-10-29T08:07:22.448Z,7.13
2022-10-29T08:08:25.465Z,7.57
2022-10-29T08:09:27.112Z,6.90
2022-10-29T08:10:30.777Z,8.20
2022-10-29T08:11:33.194Z,6.80
2022-10-29T08:12:35.723Z,7.40
2022-10-29T08:13:37.263Z,8.23
2022-10-29T08:14:39.785Z,8.00
2022-10-29T08:15:41.306Z,6.73
2022-10-29T08:16:43.803Z,7.77
2022-10-29T08:17:47.249Z,8.80
2022-10-29T08:18:49.810Z,7.80
2022-10-29T08:19:51.347Z,6.60
2022-10-29T08:20:53.802Z,7.60
2022-10-29T08:21:55.514Z,9.17
2022-10-29T08:23:01.267Z,7.80
2022-10-29T08:24:03.345Z,8.30
2022-10-29T08:25:06.544Z,8.40
2022-10-29T08:26:09.036Z,8.63
2022-10-29T08:27:10.564Z,8.23
2022-10-29T08:28:14.989Z,8.70
2022-10-29T08:29:16.688Z,8.13
2022-10-29T08:30:19.283Z,9.10
2022-10-29T08:31:20.896Z,7.83
2022-10-29T08:32:23.399Z,8.00
2022-10-29T08:33:27.655Z,9.37
2022-10-29T08:34:29.182Z,8.73
2022-10-29T08:35:31.746Z,10.10
2022-10-29T08:36:33.371Z,9.50
2022-10-29T08:37:35.939Z,8.67
2022-10-29T08:38:37.486Z,8.73
2022-10-29T08:39:39.994Z,8.60
2022-10-29T08:40:56.127Z,8.57
2022-10-29T08:42:11.004Z,8.53
2022-10-29T08:43:47.617Z,8.47
2022-10-29T08:45:11.771Z,9.30
2022-10-29T08:46:19.258Z,8.00
2022-10-29T08:47:24.106Z,8.67
2022-10-29T08:48:37.589Z,9.10
2022-10-29T08:49:47.266Z,7.80
2022-10-29T08:50:53.383Z,9.70
2022-10-29T08:52:01.117Z,8.13
2022-10-29T08:53:22.386Z,8.97
2022-10-29T08:54:31.502Z,8.47
2022-10-29T08:55:36.322Z,8.90
2022-10-29T08:56:41.151Z,7.43
2022-10-29T08:57:56.415Z,9.23
2022-10-29T08:59:03.419Z,8.67
2022-10-29T09:01:21.604Z,6.90
2022-10-29T09:02:24.337Z,7.80
2022-10-29T09:03:28.658Z,8.27
2022-10-29T09:04:37.252Z,9.73
2022-10-29T09:05:49.642Z,7.10
2022-10-29T09:07:16.359Z,7.33
2022-10-29T09:08:32.038Z,7.40
2022-10-29T09:09:39.181Z,7.10
2022-10-29T09:10:48.094Z,8.20
2022-10-29T09:12:04.987Z,6.80
2022-10-29T09:13:23.615Z,7.27
2022-10-29T09:14:43.910Z,7.50
2022-10-29T09:16:01.331Z,6.93
2022-10-29T09:17:15.770Z,7.87
2022-10-29T09:18:33.477Z,7.60
2022-10-29T09:19:50.245Z,7.20
2022-10-29T09:20:59.002Z,6.80
2022-10-29T09:22:13.223Z,7.80
2022-10-29T09:23:25.532Z,6.20
2022-10-29T09:24:34.963Z,6.30
2022-10-29T09:25:46.639Z,7.07
2022-10-29T09:26:58.641Z,7.67
2022-10-29T09:28:17.707Z,6.23
2022-10-29T09:29:34.433Z,7.10
2022-10-29T09:30:43.985Z,6.60
2022-10-29T09:31:49.916Z,6.70
2022-10-29T09:32:59.960Z,8.37
2022-10-29T09:34:05.965Z,6.60
2022-10-29T09:35:14.718Z,7.30
2022-10-29T09:36:18.446Z,6.10
2022-10-29T09:37:25.728Z,5.97
2022-10-29T09:38:32.723Z,7.60
2022-10-29T09:39:39.922Z,7.10
2022-10-29T09:40:42.960Z,6.70
2022-10-29T09:41:45.940Z,6.47
2022-10-29T09:42:48.086Z,7.50
2022-10-29T09:43:56.909Z,6.17
2022-10-29T09:45:02.591Z,8.20
2022-10-29T09:46:12.174Z,6.60
2022-10-29T09:47:25.450Z,7.70
2022-10-29T09:48:33.801Z,6.63
2022-10-29T09:49:49.911Z,6.93
2022-10-29T09:51:02.685Z,6.93
2022-10-29T09:52:09.955Z,7.00
2022-10-29T09:53:12.588Z,6.30
2022-10-29T09:54:14.223Z,6.40
2022-10-29T09:55:22.213Z,6.70
2022-10-29T09:56:23.822Z,6.40
2022-10-29T09:57:29.294Z,6.40
2022-10-29T09:58:30.841Z,7.07
2022-10-29T09:59:37.628Z,7.40
2022-10-29T10:00:40.167Z,7.10
2022-10-29T10:01:41.790Z,6.60
2022-10-29T10:02:46.640Z,8.30
2022-10-29T10:03:55.059Z,6.83
2022-10-29T10:05:01.849Z,6.53
2022-10-29T10:06:08.010Z,7.00
2022-10-29T10:07:11.721Z,8.17
2022-10-29T10:08:15.409Z,6.40
2022-10-29T10:09:16.927Z,6.67
2022-10-29T10:10:23.872Z,7.50
2022-10-29T10:11:31.036Z,6.70
2022-10-29T10:12:46.750Z,7.27
2022-10-29T10:13:53.717Z,8.67
2022-10-29T10:15:16.976Z,7.23
2022-10-29T10:16:25.233Z,7.00
2022-10-29T10:17:26.798Z,6.87
2022-10-29T10:18:41.594Z,8.07
2022-10-29T10:19:45.570Z,6.93
2022-10-29T10:21:03.114Z,6.80
2022-10-29T10:22:16.447Z,6.27
2022-10-29T10:23:27.302Z,6.90
2022-10-29T10:24:31.532Z,6.63
2022-10-29T10:25:36.731Z,8.27
2022-10-29T10:26:43.006Z,7.27
2022-10-29T10:27:44.582Z,6.83
2022-10-29T10:29:03.959Z,6.50
2022-10-29T10:30:15.762Z,7.03
2022-10-29T10:31:18.294Z,6.50
2022-10-29T10:32:19.810Z,6.27
2022-10-29T10:33:27.022Z,6.53
2022-10-29T10:34:38.866Z,6.00
2022-10-29T10:35:41.129Z,6.93
2022-10-29T10:36:45.531Z,6.43
2022-10-29T10:37:48.535Z,6.17
2022-10-29T10:38:54.009Z,7.27
2022-10-29T10:40:00.489Z,6.57
2022-10-29T10:41:08.258Z,6.20
2022-10-29T10:42:17.055Z,8.13
2022-10-29T10:43:23.067Z,6.40
2022-10-29T10:44:25.929Z,6.27
2022-10-29T10:45:34.443Z,6.57
2022-10-29T10:46:41.718Z,6.93
2022-10-29T10:47:47.894Z,6.27
2022-10-29T10:48:59.494Z,6.37
2022-10-29T10:50:11.894Z,6.40
2022-10-29T10:51:25.178Z,6.73
2022-10-29T10:52:32.191Z,6.23
2022-10-29T10:53:35.371Z,5.80
2022-10-29T10:54:41.852Z,6.40
2022-10-29T10:55:47.963Z,6.70
2022-10-29T10:56:58.508Z,5.60
2022-10-29T10:58:11.259Z,5.93
2022-10-29T10:59:16.347Z,6.10
2022-10-29T11:00:20.791Z,5.87
2022-10-29T11:01:28.276Z,6.60
2022-10-29T11:02:40.219Z,5.90
2022-10-29T11:03:45.342Z,6.37
2022-10-29T11:04:50.881Z,6.60
2022-10-29T11:05:59.485Z,6.00
2022-10-29T11:07:07.087Z,5.80
2022-10-29T11:08:17.626Z,6.53
2022-10-29T11:09:25.380Z,5.60
2022-10-29T11:10:34.990Z,5.80
2022-10-29T11:11:40.336Z,6.30
2022-10-29T11:12:46.430Z,5.90
2022-10-29T11:13:50.286Z,5.77
2022-10-29T11:14:58.364Z,5.37
2022-10-29T11:16:08.210Z,6.27
2022-10-29T11:17:25.994Z,6.10
2022-10-29T11:18:34.663Z,6.70
2022-10-29T11:19:42.988Z,6.40
2022-10-29T11:20:51.014Z,6.03
2022-10-29T11:22:03.814Z,6.27
2022-10-29T11:23:24.547Z,5.57
2022-10-29T11:24:37.814Z,5.50
2022-10-29T11:25:43.676Z,6.33
2022-10-29T11:26:49.798Z,6.93
2022-10-29T11:27:56.969Z,5.93
2022-10-29T11:29:05.596Z,5.63
2022-10-29T11:30:12.082Z,6.30
2022-10-29T11:31:23.994Z,6.37
2022-10-29T11:32:33.367Z,7.10
2022-10-29T11:33:44.448Z,6.00
2022-10-29T11:34:54.485Z,5.50
2022-10-29T11:36:02.656Z,5.80
2022-10-29T11:37:14.923Z,5.97
2022-10-29T11:38:21.013Z,6.53
2022-10-29T11:39:32.550Z,6.17
2022-10-29T11:40:41.402Z,5.40
2022-10-29T11:41:51.202Z,5.93
2022-10-29T11:42:53.853Z,5.97
2022-10-29T11:43:55.527Z,6.17
2022-10-29T11:44:59.968Z,6.17
2022-10-29T11:46:08.780Z,6.23
2022-10-29T11:47:28.035Z,5.90
2022-10-29T11:48:46.169Z,6.20
2022-10-29T11:50:05.409Z,5.60
2022-10-29T11:51:19.895Z,6.97
2022-10-29T11:52:35.528Z,5.77
2022-10-29T11:53:56.695Z,5.70
2022-10-29T11:55:16.206Z,5.50
2022-10-29T11:56:30.753Z,6.80
2022-10-29T11:57:40.472Z,6.20
2022-10-29T11:58:49.287Z,5.90
2022-10-29T12:00:05.646Z,6.10
2022-10-29T12:01:20.376Z,6.83
2022-10-29T12:02:35.227Z,6.73
2022-10-29T12:03:54.545Z,5.90
2022-10-29T12:05:01.967Z,6.77
2022-10-29T12:06:16.447Z,5.73
2022-10-29T12:07:30.831Z,7.07
2022-10-29T12:08:48.851Z,6.10
2022-10-29T12:10:13.393Z,5.90
2022-10-29T12:11:26.011Z,6.23
2022-10-29T12:12:35.882Z,5.10
2022-10-29T12:13:55.222Z,5.90
2022-10-29T12:15:03.049Z,7.17
2022-10-29T12:16:21.239Z,5.67
2022-10-29T12:17:32.601Z,6.93
2022-10-29T12:18:44.348Z,5.87
2022-10-29T12:19:55.634Z,5.60
2022-10-29T12:21:06.026Z,6.67
2022-10-29T12:22:21.823Z,6.13
2022-10-29T12:23:34.778Z,6.10
2022-10-29T12:24:50.086Z,5.50
2022-10-29T12:26:02.479Z,5.43
2022-10-29T12:27:14.362Z,5.70
2022-10-29T12:28:23.997Z,5.97
2022-10-29T12:29:33.842Z,7.00
2022-10-29T12:30:43.459Z,5.90
2022-10-29T12:31:55.834Z,6.27
2022-10-29T12:33:05.654Z,6.57
2022-10-29T12:34:17.476Z,6.60
2022-10-29T12:35:28.989Z,7.10
2022-10-29T12:36:38.957Z,6.03
2022-10-29T12:37:47.300Z,6.10
2022-10-29T12:38:52.727Z,6.47
2022-10-29T12:40:01.031Z,5.60
2022-10-29T12:41:06.315Z,5.80
2022-10-29T12:42:16.199Z,6.10
2022-10-29T12:43:23.433Z,5.73
2022-10-29T12:44:31.937Z,6.13
2022-10-29T12:46:06.525Z,6.00
2022-10-29T12:47:12.258Z,6.10
2022-10-29T12:48:18.751Z,7.23
2022-10-29T12:49:31.404Z,5.67
2022-10-29T12:50:44.895Z,5.97
2022-10-29T12:51:54.370Z,5.30
2022-10-29T12:53:04.441Z,5.70
2022-10-29T12:54:21.462Z,5.70
2022-10-29T12:55:24.010Z,6.00
2022-10-29T12:56:29.744Z,5.20
2022-10-29T12:57:34.578Z,5.17
2022-10-29T12:58:48.834Z,5.57
2022-10-29T12:59:51.353Z,6.13
2022-10-29T13:00:53.018Z,6.17
2022-10-29T13:02:12.313Z,6.50
2022-10-29T13:03:48.790Z,5.40
2022-10-29T13:05:13.850Z,6.30
2022-10-29T13:06:45.463Z,6.10
2022-10-29T13:08:27.835Z,6.00
2022-10-29T13:09:33.376Z,5.20
2022-10-29T13:10:53.772Z,6.40
2022-10-29T13:11:59.385Z,7.27
2022-10-29T13:13:05.386Z,6.13
2022-10-29T13:14:07.930Z,6.00
2022-10-29T13:15:15.294Z,6.40
2022-10-29T13:16:22.197Z,6.37
2022-10-29T13:17:31.704Z,5.20
2022-10-29T13:18:44.651Z,5.73
2022-10-29T13:19:52.063Z,5.90
2022-10-29T13:20:55.014Z,5.90
2022-10-29T13:22:05.148Z,6.37
2022-10-29T13:23:32.881Z,6.23
2022-10-29T13:24:34.514Z,5.87
2022-10-29T13:25:48.583Z,5.60
2022-10-29T13:27:01.610Z,4.83
2022-10-29T13:28:52.958Z,6.30
2022-10-29T13:30:22.484Z,5.47
2022-10-29T13:31:54.854Z,6.23
2022-10-29T13:32:56.879Z,5.33
2022-10-29T13:33:59.588Z,6.03
2022-10-29T13:35:03.241Z,6.00
2022-10-29T13:36:07.291Z,6.80
2022-10-29T13:37:55.830Z,6.37
2022-10-29T13:39:07.322Z,5.80
2022-10-29T13:40:43.663Z,6.10
2022-10-29T13:41:51.303Z,6.13
2022-10-29T13:42:58.301Z,6.40
2022-10-29T13:44:04.856Z,6.33
2022-10-29T13:45:11.607Z,5.57
2022-10-29T13:46:30.050Z,5.83
2022-10-29T13:47:32.043Z,6.30
2022-10-29T13:48:37.175Z,5.90
2022-10-29T13:49:44.153Z,5.40
2022-10-29T13:50:49.867Z,6.80
2022-10-29T13:52:00.074Z,6.50
2022-10-29T13:53:10.731Z,6.33
2022-10-29T13:54:23.959Z,5.67
2022-10-29T13:55:27.596Z,5.43
2022-10-29T13:56:35.706Z,5.23
2022-10-29T13:57:44.032Z,5.40
2022-10-29T13:58:59.611Z,6.00
2022-10-29T14:00:07.273Z,5.40
2022-10-29T14:01:17.256Z,5.47
2022-10-29T14:02:31.149Z,5.80
2022-10-29T14:03:42.611Z,6.10
2022-10-29T14:04:49.649Z,5.40
2022-10-29T14:05:57.491Z,4.90
2022-10-29T14:07:00.574Z,6.40
2022-10-29T14:08:12.787Z,6.70
2022-10-29T14:09:21.032Z,5.83
2022-10-29T14:10:27.223Z,6.70
2022-10-29T14:11:38.164Z,6.17
2022-10-29T14:12:42.764Z,4.97
2022-10-29T14:13:49.067Z,5.03
2022-10-29T14:14:59.306Z,5.57
2022-10-29T14:16:02.682Z,5.60
2022-10-29T14:17:13.863Z,5.97
2022-10-29T14:18:19.869Z,5.40
2022-10-29T14:19:21.681Z,5.53
2022-10-29T14:20:27.041Z,5.90
2022-10-29T14:21:36.453Z,5.40
2022-10-29T14:22:40.941Z,5.60
2022-10-29T14:23:55.104Z,5.80
2022-10-29T14:24:58.221Z,5.30
2022-10-29T14:26:03.753Z,5.27
2022-10-29T14:27:07.427Z,5.20
2022-10-29T14:28:24.708Z,5.23
2022-10-29T14:29:26.275Z,5.50
2022-10-29T14:30:30.393Z,5.50
2022-10-29T14:31:32.873Z,5.60
2022-10-29T14:32:38.342Z,6.10
2022-10-29T14:33:41.790Z,6.00
2022-10-29T14:34:45.186Z,5.90
2022-10-29T14:35:48.250Z,5.70
2022-10-29T14:36:53.597Z,6.00
2022-10-29T14:37:57.426Z,4.77
2022-10-29T14:39:04.062Z,5.97
2022-10-29T14:40:14.946Z,5.20
2022-10-29T14:41:19.168Z,6.37
2022-10-29T14:42:28.291Z,5.20
2022-10-29T14:43:30.476Z,5.97
2022-10-29T14:44:33.915Z,5.53
2022-10-29T14:45:36.801Z,5.43
2022-10-29T14:46:39.876Z,5.63
2022-10-29T14:47:41.561Z,5.53
2022-10-29T14:48:53.658Z,5.27
2022-10-29T14:49:57.496Z,4.53